GLT1 KBCT-KCVG
Flight info
| Callsign | GLT1 |
|---|---|
| Flight time | 1h 54m |
| Altitude | 40000 |
| Route | MYZNR3 MATLK Q87 FEMON SPA CUBIM JAKIE7 |
| Aircraft | C750/M-VGDW/C |
Departure
| Time | 2026-04-20 03:10 |
|---|---|
| Airport | Boca Raton Airport (KBCT) |
Arrival
| Time | 2026-04-20 05:04 |
|---|---|
| Airport | Cincinnati Northern Kentucky International Airport (KCVG) |
| Time | Latitude | Longitude | Altitude | Speed | Heading |
|---|---|---|---|---|---|
| 2026-04-20 02:59 | 26.37757 | -80.11079 | 21 ft | 0 kts | 46° |
| 2026-04-20 03:06 | 26.37771 | -80.11059 | 23 ft | 8 kts | 58° |
| 2026-04-20 03:06 | 26.37777 | -80.10980 | 22 ft | 10 kts | 128° |
| 2026-04-20 03:06 | 26.37730 | -80.11002 | 21 ft | 14 kts | 224° |
| 2026-04-20 03:07 | 26.37655 | -80.11084 | 22 ft | 15 kts | 225° |
| 2026-04-20 03:07 | 26.37585 | -80.11159 | 22 ft | 13 kts | 224° |
| 2026-04-20 03:07 | 26.37521 | -80.11229 | 24 ft | 12 kts | 224° |
| 2026-04-20 03:07 | 26.37464 | -80.11291 | 22 ft | 11 kts | 225° |
| 2026-04-20 03:08 | 26.37413 | -80.11346 | 22 ft | 10 kts | 224° |
| 2026-04-20 03:08 | 26.37367 | -80.11396 | 22 ft | 9 kts | 224° |
| 2026-04-20 03:08 | 26.37318 | -80.11449 | 23 ft | 10 kts | 224° |
| 2026-04-20 03:08 | 26.37268 | -80.11464 | 22 ft | 8 kts | 139° |
| 2026-04-20 03:09 | 26.37252 | -80.11418 | 24 ft | 6 kts | 56° |
| 2026-04-20 03:09 | 26.37259 | -80.11410 | 23 ft | 12 kts | 45° |
| 2026-04-20 03:09 | 26.37609 | -80.11030 | 21 ft | 125 kts | 44° |
| 2026-04-20 03:09 | 26.38317 | -80.10261 | 486 ft | 145 kts | 44° |
| 2026-04-20 03:10 | 26.39099 | -80.09527 | 1148 ft | 154 kts | 37° |
| 2026-04-20 03:10 | 26.39995 | -80.08694 | 1552 ft | 185 kts | 40° |
| 2026-04-20 03:10 | 26.40753 | -80.07943 | 1917 ft | 207 kts | 41° |
| 2026-04-20 03:10 | 26.41243 | -80.07448 | 2156 ft | 220 kts | 41° |
| 2026-04-20 03:11 | 26.42419 | -80.06282 | 2675 ft | 245 kts | 41° |
| 2026-04-20 03:11 | 26.43752 | -80.04964 | 3328 ft | 260 kts | 41° |
| 2026-04-20 03:11 | 26.45109 | -80.03615 | 4356 ft | 264 kts | 43° |
| 2026-04-20 03:11 | 26.46506 | -80.02204 | 5182 ft | 275 kts | 42° |
| 2026-04-20 03:12 | 26.47936 | -80.00785 | 6212 ft | 274 kts | 40° |
| 2026-04-20 03:12 | 26.49368 | -79.99377 | 7231 ft | 276 kts | 40° |
| 2026-04-20 03:12 | 26.50801 | -79.97933 | 8072 ft | 288 kts | 40° |
| 2026-04-20 03:12 | 26.52291 | -79.96468 | 9197 ft | 283 kts | 41° |
| 2026-04-20 03:13 | 26.53714 | -79.95064 | 10346 ft | 265 kts | 39° |
| 2026-04-20 03:13 | 26.55350 | -79.93682 | 10144 ft | 315 kts | 26° |
| 2026-04-20 03:13 | 26.57545 | -79.93137 | 10012 ft | 335 kts | 357° |
| 2026-04-20 03:13 | 26.59776 | -79.93897 | 10256 ft | 342 kts | 330° |
| 2026-04-20 03:14 | 26.61436 | -79.95814 | 10845 ft | 348 kts | 300° |
| 2026-04-20 03:14 | 26.62087 | -79.98394 | 11675 ft | 350 kts | 274° |
| 2026-04-20 03:14 | 26.61666 | -80.01065 | 12281 ft | 356 kts | 250° |
| 2026-04-20 03:14 | 26.61060 | -80.02442 | 12746 ft | 356 kts | 243° |
| 2026-04-20 03:15 | 26.59781 | -80.04819 | 13510 ft | 358 kts | 240° |
| 2026-04-20 03:15 | 26.58533 | -80.07201 | 14207 ft | 360 kts | 243° |
| 2026-04-20 03:15 | 26.57530 | -80.09770 | 14846 ft | 362 kts | 254° |
| 2026-04-20 03:15 | 26.57297 | -80.12562 | 15486 ft | 362 kts | 272° |
| 2026-04-20 03:16 | 26.57734 | -80.15324 | 16213 ft | 364 kts | 287° |
| 2026-04-20 03:16 | 26.58847 | -80.17867 | 16907 ft | 368 kts | 302° |
| 2026-04-20 03:16 | 26.60577 | -80.20001 | 17583 ft | 375 kts | 317° |
| 2026-04-20 03:16 | 26.62799 | -80.21590 | 18222 ft | 383 kts | 328° |
| 2026-04-20 03:17 | 26.65167 | -80.22997 | 18963 ft | 385 kts | 328° |
| 2026-04-20 03:17 | 26.67542 | -80.24414 | 19653 ft | 389 kts | 328° |
| 2026-04-20 03:17 | 26.69926 | -80.25873 | 20349 ft | 392 kts | 328° |
| 2026-04-20 03:17 | 26.72327 | -80.27342 | 21028 ft | 396 kts | 328° |
| 2026-04-20 03:18 | 26.74760 | -80.28815 | 21712 ft | 399 kts | 328° |
| 2026-04-20 03:18 | 26.77213 | -80.30299 | 22383 ft | 402 kts | 328° |
| 2026-04-20 03:18 | 26.79684 | -80.31804 | 23036 ft | 406 kts | 328° |
| 2026-04-20 03:18 | 26.82174 | -80.33322 | 23681 ft | 409 kts | 328° |
| 2026-04-20 03:19 | 26.84649 | -80.34827 | 24300 ft | 412 kts | 328° |
| 2026-04-20 03:19 | 26.87182 | -80.36369 | 24918 ft | 415 kts | 327° |
| 2026-04-20 03:19 | 26.89734 | -80.37925 | 25532 ft | 418 kts | 327° |
| 2026-04-20 03:19 | 26.92303 | -80.39491 | 26129 ft | 422 kts | 327° |
| 2026-04-20 03:20 | 26.94893 | -80.41070 | 26714 ft | 425 kts | 326° |
| 2026-04-20 03:20 | 26.97502 | -80.42662 | 27288 ft | 428 kts | 326° |
| 2026-04-20 03:20 | 27.00129 | -80.44267 | 27869 ft | 433 kts | 326° |
| 2026-04-20 03:20 | 27.02784 | -80.45893 | 28567 ft | 435 kts | 325° |
| 2026-04-20 03:21 | 27.05450 | -80.47525 | 29103 ft | 438 kts | 325° |
| 2026-04-20 03:21 | 27.08140 | -80.49164 | 29575 ft | 441 kts | 325° |
| 2026-04-20 03:21 | 27.10815 | -80.50798 | 30066 ft | 444 kts | 325° |
| 2026-04-20 03:21 | 27.13533 | -80.52465 | 30513 ft | 447 kts | 325° |
| 2026-04-20 03:22 | 27.16270 | -80.54144 | 30946 ft | 450 kts | 324° |
| 2026-04-20 03:22 | 27.19024 | -80.55828 | 31548 ft | 448 kts | 324° |
| 2026-04-20 03:22 | 27.21754 | -80.57497 | 32230 ft | 445 kts | 324° |
| 2026-04-20 03:22 | 27.24461 | -80.59161 | 32813 ft | 444 kts | 324° |
| 2026-04-20 03:23 | 27.27179 | -80.60834 | 33381 ft | 444 kts | 324° |
| 2026-04-20 03:23 | 27.29890 | -80.62499 | 33955 ft | 443 kts | 324° |
| 2026-04-20 03:23 | 27.32591 | -80.64156 | 34576 ft | 442 kts | 323° |
| 2026-04-20 03:23 | 27.35269 | -80.65807 | 35322 ft | 436 kts | 323° |
| 2026-04-20 03:24 | 27.37917 | -80.67430 | 36042 ft | 431 kts | 323° |
| 2026-04-20 03:24 | 27.40541 | -80.69044 | 36702 ft | 427 kts | 323° |
| 2026-04-20 03:24 | 27.43136 | -80.70646 | 37384 ft | 422 kts | 323° |
| 2026-04-20 03:24 | 27.45683 | -80.72213 | 38191 ft | 412 kts | 323° |
| 2026-04-20 03:25 | 27.48152 | -80.73734 | 38747 ft | 408 kts | 323° |
| 2026-04-20 03:25 | 27.50631 | -80.75270 | 39248 ft | 405 kts | 323° |
| 2026-04-20 03:25 | 27.53101 | -80.76799 | 39689 ft | 405 kts | 323° |
| 2026-04-20 03:25 | 27.55584 | -80.78332 | 40076 ft | 407 kts | 323° |
| 2026-04-20 03:26 | 27.58098 | -80.79887 | 40079 ft | 418 kts | 323° |
| 2026-04-20 03:26 | 27.63317 | -80.83117 | 40102 ft | 438 kts | 323° |
| 2026-04-20 03:27 | 27.68759 | -80.86482 | 40101 ft | 453 kts | 324° |
| 2026-04-20 03:27 | 27.74353 | -80.89950 | 40102 ft | 464 kts | 324° |
| 2026-04-20 03:28 | 27.80077 | -80.93447 | 40088 ft | 472 kts | 327° |
| 2026-04-20 03:28 | 27.89737 | -80.96482 | 40092 ft | 492 kts | 342° |
| 2026-04-20 03:29 | 27.96483 | -80.97793 | 40102 ft | 491 kts | 341° |
| 2026-04-20 03:29 | 28.03222 | -80.99103 | 40100 ft | 493 kts | 341° |
| 2026-04-20 03:30 | 28.08853 | -81.00193 | 40098 ft | 494 kts | 341° |
| 2026-04-20 03:30 | 28.15630 | -81.01516 | 40098 ft | 493 kts | 341° |
| 2026-04-20 03:31 | 28.22400 | -81.02833 | 40100 ft | 493 kts | 341° |
| 2026-04-20 03:31 | 28.29171 | -81.04155 | 40094 ft | 493 kts | 341° |
| 2026-04-20 03:32 | 28.35914 | -81.05556 | 40081 ft | 488 kts | 337° |
| 2026-04-20 03:32 | 28.42236 | -81.08070 | 40103 ft | 479 kts | 330° |
| 2026-04-20 03:33 | 28.48475 | -81.10748 | 40101 ft | 479 kts | 330° |
| 2026-04-20 03:33 | 28.54698 | -81.13445 | 40105 ft | 479 kts | 330° |
| 2026-04-20 03:34 | 28.60933 | -81.16139 | 40093 ft | 479 kts | 330° |
| 2026-04-20 03:34 | 28.67161 | -81.18838 | 40093 ft | 479 kts | 330° |
| 2026-04-20 03:35 | 28.73357 | -81.21526 | 40110 ft | 480 kts | 330° |
| 2026-04-20 03:35 | 28.79613 | -81.24242 | 40108 ft | 480 kts | 330° |
| 2026-04-20 03:36 | 28.85836 | -81.26949 | 40113 ft | 479 kts | 330° |
| 2026-04-20 03:36 | 28.92248 | -81.29246 | 40123 ft | 492 kts | 339° |
| 2026-04-20 03:37 | 28.99186 | -81.30045 | 40151 ft | 505 kts | 346° |
| 2026-04-20 03:37 | 29.06185 | -81.30609 | 40167 ft | 503 kts | 346° |
| 2026-04-20 03:38 | 29.13190 | -81.31164 | 40163 ft | 504 kts | 346° |
| 2026-04-20 03:38 | 29.20157 | -81.31718 | 40163 ft | 505 kts | 346° |
| 2026-04-20 03:39 | 29.27172 | -81.32278 | 40161 ft | 505 kts | 346° |
| 2026-04-20 03:39 | 29.34222 | -81.32693 | 40160 ft | 506 kts | 347° |
| 2026-04-20 03:40 | 29.41269 | -81.33121 | 40158 ft | 508 kts | 347° |
| 2026-04-20 03:40 | 29.48325 | -81.33527 | 40161 ft | 507 kts | 347° |
| 2026-04-20 03:41 | 29.55378 | -81.33950 | 40164 ft | 507 kts | 347° |
| 2026-04-20 03:41 | 29.62384 | -81.34359 | 40165 ft | 507 kts | 347° |
| 2026-04-20 03:42 | 29.69442 | -81.34780 | 40166 ft | 509 kts | 347° |
| 2026-04-20 03:42 | 29.76512 | -81.35197 | 40166 ft | 508 kts | 347° |
| 2026-04-20 03:43 | 29.83580 | -81.35617 | 40169 ft | 508 kts | 347° |
| 2026-04-20 03:43 | 29.90646 | -81.36036 | 40178 ft | 508 kts | 347° |
| 2026-04-20 03:44 | 29.97706 | -81.36457 | 40179 ft | 508 kts | 347° |
| 2026-04-20 03:44 | 30.04767 | -81.36877 | 40175 ft | 509 kts | 346° |
| 2026-04-20 03:45 | 30.11855 | -81.37300 | 40179 ft | 509 kts | 346° |
| 2026-04-20 03:45 | 30.18939 | -81.37723 | 40180 ft | 508 kts | 346° |
| 2026-04-20 03:46 | 30.26002 | -81.38147 | 40178 ft | 508 kts | 346° |
| 2026-04-20 03:46 | 30.33037 | -81.38567 | 40179 ft | 509 kts | 346° |
| 2026-04-20 03:47 | 30.40109 | -81.38992 | 40181 ft | 509 kts | 346° |
| 2026-04-20 03:47 | 30.47168 | -81.39469 | 40172 ft | 504 kts | 344° |
| 2026-04-20 03:48 | 30.54161 | -81.40266 | 40189 ft | 504 kts | 344° |
| 2026-04-20 03:48 | 30.61159 | -81.41032 | 40198 ft | 505 kts | 344° |
| 2026-04-20 03:49 | 30.68157 | -81.41817 | 40192 ft | 505 kts | 344° |
| 2026-04-20 03:49 | 30.75161 | -81.42595 | 40195 ft | 505 kts | 344° |
| 2026-04-20 03:50 | 30.82106 | -81.43371 | 40197 ft | 505 kts | 344° |
| 2026-04-20 03:50 | 30.89090 | -81.44152 | 40198 ft | 504 kts | 344° |
| 2026-04-20 03:51 | 30.96076 | -81.44934 | 40195 ft | 504 kts | 344° |
| 2026-04-20 03:51 | 31.03059 | -81.45717 | 40201 ft | 504 kts | 344° |
| 2026-04-20 03:52 | 31.10042 | -81.46501 | 40204 ft | 505 kts | 344° |
| 2026-04-20 03:52 | 31.17036 | -81.47288 | 40198 ft | 503 kts | 344° |
| 2026-04-20 03:53 | 31.24002 | -81.48074 | 40217 ft | 503 kts | 344° |
| 2026-04-20 03:53 | 31.30977 | -81.48859 | 40221 ft | 504 kts | 344° |
| 2026-04-20 03:54 | 31.37968 | -81.49649 | 40223 ft | 504 kts | 344° |
| 2026-04-20 03:54 | 31.44898 | -81.50433 | 40224 ft | 504 kts | 344° |
| 2026-04-20 03:55 | 31.51883 | -81.51224 | 40224 ft | 502 kts | 344° |
| 2026-04-20 03:55 | 31.58848 | -81.52016 | 40215 ft | 503 kts | 344° |
| 2026-04-20 03:56 | 31.65824 | -81.52808 | 40216 ft | 503 kts | 344° |
| 2026-04-20 03:56 | 31.72807 | -81.53603 | 40219 ft | 504 kts | 344° |
| 2026-04-20 03:57 | 31.79781 | -81.54398 | 40219 ft | 503 kts | 344° |
| 2026-04-20 03:57 | 31.86757 | -81.55194 | 40217 ft | 503 kts | 344° |
| 2026-04-20 03:58 | 31.93736 | -81.55992 | 40219 ft | 504 kts | 344° |
| 2026-04-20 03:58 | 32.00665 | -81.56786 | 40219 ft | 503 kts | 344° |
| 2026-04-20 03:59 | 32.07643 | -81.57586 | 40219 ft | 504 kts | 344° |
| 2026-04-20 03:59 | 32.14629 | -81.58389 | 40226 ft | 504 kts | 344° |
| 2026-04-20 04:00 | 32.21613 | -81.59192 | 40228 ft | 504 kts | 344° |
| 2026-04-20 04:00 | 32.28601 | -81.59997 | 40226 ft | 504 kts | 344° |
| 2026-04-20 04:01 | 32.35570 | -81.60801 | 40229 ft | 504 kts | 344° |
| 2026-04-20 04:01 | 32.42563 | -81.61609 | 40230 ft | 504 kts | 344° |
| 2026-04-20 04:02 | 32.49508 | -81.62414 | 40232 ft | 504 kts | 344° |
| 2026-04-20 04:02 | 32.56505 | -81.63225 | 40234 ft | 507 kts | 344° |
| 2026-04-20 04:03 | 32.63520 | -81.64038 | 40240 ft | 506 kts | 344° |
| 2026-04-20 04:03 | 32.70536 | -81.64856 | 40238 ft | 507 kts | 344° |
| 2026-04-20 04:04 | 32.77556 | -81.65673 | 40254 ft | 507 kts | 344° |
| 2026-04-20 04:04 | 32.84582 | -81.66494 | 40256 ft | 508 kts | 344° |
| 2026-04-20 04:05 | 32.91622 | -81.67314 | 40257 ft | 508 kts | 344° |
| 2026-04-20 04:05 | 32.98615 | -81.68135 | 40252 ft | 508 kts | 344° |
| 2026-04-20 04:06 | 33.05665 | -81.68960 | 40251 ft | 508 kts | 344° |
| 2026-04-20 04:06 | 33.12728 | -81.69790 | 40241 ft | 510 kts | 344° |
| 2026-04-20 04:07 | 33.19789 | -81.70620 | 40246 ft | 510 kts | 344° |
| 2026-04-20 04:07 | 33.26860 | -81.71453 | 40246 ft | 510 kts | 345° |
| 2026-04-20 04:08 | 33.33929 | -81.72287 | 40239 ft | 510 kts | 345° |
| 2026-04-20 04:08 | 33.40968 | -81.73119 | 40240 ft | 512 kts | 345° |
| 2026-04-20 04:09 | 33.48070 | -81.73960 | 40241 ft | 511 kts | 345° |
| 2026-04-20 04:09 | 33.55158 | -81.74801 | 40258 ft | 512 kts | 345° |
| 2026-04-20 04:10 | 33.62252 | -81.75643 | 40258 ft | 512 kts | 345° |
| 2026-04-20 04:10 | 33.69345 | -81.76487 | 40264 ft | 512 kts | 345° |
| 2026-04-20 04:11 | 33.76394 | -81.77326 | 40264 ft | 512 kts | 345° |
| 2026-04-20 04:11 | 33.83489 | -81.78175 | 40265 ft | 512 kts | 345° |
| 2026-04-20 04:12 | 33.90587 | -81.79021 | 40262 ft | 512 kts | 345° |
| 2026-04-20 04:12 | 33.97672 | -81.79872 | 40265 ft | 512 kts | 345° |
| 2026-04-20 04:13 | 34.04724 | -81.80716 | 40266 ft | 512 kts | 345° |
| 2026-04-20 04:13 | 34.11816 | -81.81569 | 40265 ft | 512 kts | 345° |
| 2026-04-20 04:14 | 34.18903 | -81.82422 | 40270 ft | 512 kts | 345° |
| 2026-04-20 04:14 | 34.25999 | -81.83278 | 40270 ft | 512 kts | 345° |
| 2026-04-20 04:15 | 34.33098 | -81.84135 | 40272 ft | 513 kts | 345° |
| 2026-04-20 04:15 | 34.40222 | -81.84996 | 40270 ft | 514 kts | 345° |
| 2026-04-20 04:16 | 34.47303 | -81.85855 | 40271 ft | 514 kts | 345° |
| 2026-04-20 04:16 | 34.54415 | -81.86718 | 40272 ft | 514 kts | 345° |
| 2026-04-20 04:17 | 34.61547 | -81.87585 | 40269 ft | 515 kts | 345° |
| 2026-04-20 04:17 | 34.67476 | -81.88308 | 40270 ft | 516 kts | 345° |
| 2026-04-20 04:18 | 34.75803 | -81.89323 | 40272 ft | 516 kts | 345° |
| 2026-04-20 04:18 | 34.81804 | -81.90057 | 40274 ft | 517 kts | 345° |
| 2026-04-20 04:19 | 34.88971 | -81.90934 | 40277 ft | 517 kts | 345° |
| 2026-04-20 04:19 | 34.96081 | -81.91807 | 40270 ft | 518 kts | 345° |
| 2026-04-20 04:20 | 35.03146 | -81.93149 | 40258 ft | 505 kts | 336° |
| 2026-04-20 04:20 | 35.09575 | -81.96248 | 40264 ft | 492 kts | 326° |
| 2026-04-20 04:21 | 35.15791 | -81.99801 | 40279 ft | 493 kts | 326° |
| 2026-04-20 04:21 | 35.21990 | -82.03346 | 40274 ft | 489 kts | 326° |
| 2026-04-20 04:22 | 35.28171 | -82.06903 | 40275 ft | 491 kts | 326° |
| 2026-04-20 04:22 | 35.34338 | -82.10438 | 40277 ft | 493 kts | 326° |
| 2026-04-20 04:23 | 35.40547 | -82.14019 | 40278 ft | 493 kts | 326° |
| 2026-04-20 04:23 | 35.46759 | -82.17597 | 40278 ft | 493 kts | 326° |
| 2026-04-20 04:24 | 35.52962 | -82.21181 | 40288 ft | 493 kts | 326° |
| 2026-04-20 04:24 | 35.59174 | -82.24776 | 40288 ft | 494 kts | 326° |
| 2026-04-20 04:25 | 35.65356 | -82.28358 | 40279 ft | 494 kts | 326° |
| 2026-04-20 04:25 | 35.71587 | -82.31976 | 40287 ft | 494 kts | 326° |
| 2026-04-20 04:26 | 35.77814 | -82.35600 | 40289 ft | 494 kts | 326° |
| 2026-04-20 04:26 | 35.84027 | -82.39220 | 40281 ft | 494 kts | 326° |
| 2026-04-20 04:27 | 35.90243 | -82.42847 | 40286 ft | 494 kts | 326° |
| 2026-04-20 04:27 | 35.96450 | -82.46476 | 40288 ft | 493 kts | 326° |
| 2026-04-20 04:28 | 36.02632 | -82.50098 | 40288 ft | 494 kts | 326° |
| 2026-04-20 04:28 | 36.08870 | -82.53758 | 40284 ft | 496 kts | 326° |
| 2026-04-20 04:29 | 36.12587 | -82.55941 | 40287 ft | 496 kts | 326° |
| 2026-04-20 04:29 | 36.18855 | -82.59631 | 40285 ft | 495 kts | 326° |
| 2026-04-20 04:30 | 36.25076 | -82.63297 | 40287 ft | 494 kts | 326° |
| 2026-04-20 04:30 | 36.31288 | -82.66966 | 40287 ft | 495 kts | 326° |
| 2026-04-20 04:31 | 36.37470 | -82.70622 | 40288 ft | 495 kts | 326° |
| 2026-04-20 04:31 | 36.43695 | -82.74311 | 40289 ft | 495 kts | 326° |
| 2026-04-20 04:32 | 36.49909 | -82.78000 | 40291 ft | 495 kts | 326° |
| 2026-04-20 04:32 | 36.56119 | -82.81694 | 40290 ft | 495 kts | 326° |
| 2026-04-20 04:33 | 36.62314 | -82.85383 | 40293 ft | 496 kts | 326° |
| 2026-04-20 04:33 | 36.68528 | -82.89094 | 40286 ft | 495 kts | 326° |
| 2026-04-20 04:34 | 36.74746 | -82.92810 | 40287 ft | 495 kts | 326° |
| 2026-04-20 04:34 | 36.80967 | -82.96537 | 40287 ft | 496 kts | 326° |
| 2026-04-20 04:35 | 36.87176 | -83.00264 | 40287 ft | 494 kts | 326° |
| 2026-04-20 04:35 | 36.93501 | -83.03786 | 40282 ft | 498 kts | 328° |
| 2026-04-20 04:36 | 37.02941 | -83.09032 | 40287 ft | 498 kts | 328° |
| 2026-04-20 04:37 | 37.09287 | -83.12549 | 40277 ft | 498 kts | 328° |
| 2026-04-20 04:37 | 37.15609 | -83.16078 | 40280 ft | 498 kts | 328° |
| 2026-04-20 04:38 | 37.21929 | -83.19598 | 40276 ft | 496 kts | 328° |
| 2026-04-20 04:38 | 37.28250 | -83.23138 | 40282 ft | 498 kts | 328° |
| 2026-04-20 04:39 | 37.34516 | -83.26630 | 39657 ft | 478 kts | 328° |
| 2026-04-20 04:39 | 37.37460 | -83.28272 | 39043 ft | 461 kts | 327° |
| 2026-04-20 04:39 | 37.40349 | -83.29905 | 38446 ft | 450 kts | 327° |
| 2026-04-20 04:39 | 37.43183 | -83.31509 | 37855 ft | 443 kts | 327° |
| 2026-04-20 04:40 | 37.45988 | -83.33086 | 37267 ft | 440 kts | 327° |
| 2026-04-20 04:40 | 37.48787 | -83.34659 | 36686 ft | 441 kts | 327° |
| 2026-04-20 04:40 | 37.51595 | -83.36242 | 36089 ft | 442 kts | 326° |
| 2026-04-20 04:40 | 37.54413 | -83.37830 | 35490 ft | 449 kts | 327° |
| 2026-04-20 04:41 | 37.57302 | -83.39434 | 34881 ft | 454 kts | 327° |
| 2026-04-20 04:41 | 37.60193 | -83.41018 | 34275 ft | 451 kts | 327° |
| 2026-04-20 04:41 | 37.63060 | -83.42608 | 33689 ft | 449 kts | 326° |
| 2026-04-20 04:41 | 37.65909 | -83.44212 | 33088 ft | 448 kts | 327° |
| 2026-04-20 04:42 | 37.68726 | -83.45789 | 32501 ft | 449 kts | 327° |
| 2026-04-20 04:42 | 37.71623 | -83.47403 | 31891 ft | 450 kts | 327° |
| 2026-04-20 04:42 | 37.74489 | -83.49002 | 31291 ft | 449 kts | 327° |
| 2026-04-20 04:42 | 37.77288 | -83.50558 | 30705 ft | 442 kts | 327° |
| 2026-04-20 04:43 | 37.80076 | -83.52118 | 30126 ft | 437 kts | 327° |
| 2026-04-20 04:43 | 37.82838 | -83.53671 | 29544 ft | 431 kts | 327° |
| 2026-04-20 04:43 | 37.85551 | -83.55223 | 28973 ft | 422 kts | 325° |
| 2026-04-20 04:43 | 37.87972 | -83.57179 | 28403 ft | 406 kts | 315° |
| 2026-04-20 04:44 | 37.90006 | -83.59581 | 27869 ft | 394 kts | 306° |
| 2026-04-20 04:44 | 37.91767 | -83.62201 | 27371 ft | 389 kts | 304° |
| 2026-04-20 04:44 | 37.93521 | -83.64801 | 26860 ft | 386 kts | 305° |
| 2026-04-20 04:44 | 37.95269 | -83.67370 | 26345 ft | 384 kts | 305° |
| 2026-04-20 04:45 | 37.96997 | -83.69929 | 25833 ft | 379 kts | 305° |
| 2026-04-20 04:45 | 37.98698 | -83.72464 | 25305 ft | 374 kts | 305° |
| 2026-04-20 04:45 | 38.00381 | -83.74969 | 24832 ft | 373 kts | 305° |
| 2026-04-20 04:45 | 38.02054 | -83.77455 | 24341 ft | 369 kts | 306° |
| 2026-04-20 04:46 | 38.03715 | -83.79922 | 23850 ft | 366 kts | 306° |
| 2026-04-20 04:46 | 38.05356 | -83.82370 | 23373 ft | 363 kts | 306° |
| 2026-04-20 04:46 | 38.06969 | -83.84774 | 22898 ft | 361 kts | 306° |
| 2026-04-20 04:46 | 38.08596 | -83.87198 | 22421 ft | 358 kts | 306° |
| 2026-04-20 04:47 | 38.10205 | -83.89598 | 21945 ft | 356 kts | 306° |
| 2026-04-20 04:47 | 38.11818 | -83.91975 | 21466 ft | 354 kts | 308° |
| 2026-04-20 04:47 | 38.13706 | -83.94020 | 21002 ft | 359 kts | 319° |
| 2026-04-20 04:47 | 38.15871 | -83.95645 | 20600 ft | 362 kts | 324° |
| 2026-04-20 04:48 | 38.18067 | -83.97199 | 20172 ft | 359 kts | 324° |
| 2026-04-20 04:48 | 38.20209 | -83.98741 | 19737 ft | 356 kts | 324° |
| 2026-04-20 04:48 | 38.22359 | -84.00294 | 19311 ft | 354 kts | 324° |
| 2026-04-20 04:48 | 38.24502 | -84.01832 | 18877 ft | 352 kts | 324° |
| 2026-04-20 04:49 | 38.26635 | -84.03360 | 18245 ft | 348 kts | 324° |
| 2026-04-20 04:49 | 38.28738 | -84.04870 | 17822 ft | 345 kts | 324° |
| 2026-04-20 04:49 | 38.30822 | -84.06375 | 17417 ft | 342 kts | 324° |
| 2026-04-20 04:49 | 38.32891 | -84.07865 | 17006 ft | 340 kts | 324° |
| 2026-04-20 04:50 | 38.34949 | -84.09363 | 16603 ft | 340 kts | 324° |
| 2026-04-20 04:50 | 38.37006 | -84.10833 | 16182 ft | 339 kts | 325° |
| 2026-04-20 04:50 | 38.39050 | -84.12291 | 15731 ft | 334 kts | 324° |
| 2026-04-20 04:50 | 38.41072 | -84.13770 | 15349 ft | 330 kts | 324° |
| 2026-04-20 04:51 | 38.43078 | -84.15229 | 15026 ft | 332 kts | 325° |
| 2026-04-20 04:51 | 38.45077 | -84.16669 | 14680 ft | 329 kts | 325° |
| 2026-04-20 04:51 | 38.47048 | -84.18085 | 14332 ft | 328 kts | 325° |
| 2026-04-20 04:51 | 38.49030 | -84.19531 | 13978 ft | 326 kts | 325° |
| 2026-04-20 04:52 | 38.51006 | -84.20965 | 13634 ft | 325 kts | 325° |
| 2026-04-20 04:52 | 38.52986 | -84.22385 | 13304 ft | 327 kts | 326° |
| 2026-04-20 04:52 | 38.54944 | -84.23816 | 12913 ft | 327 kts | 325° |
| 2026-04-20 04:52 | 38.56879 | -84.25209 | 12186 ft | 306 kts | 326° |
| 2026-04-20 04:53 | 38.58669 | -84.26470 | 11878 ft | 277 kts | 325° |
| 2026-04-20 04:53 | 38.60284 | -84.27656 | 11559 ft | 263 kts | 324° |
| 2026-04-20 04:53 | 38.61824 | -84.28801 | 11290 ft | 245 kts | 324° |
| 2026-04-20 04:53 | 38.63209 | -84.30050 | 10974 ft | 245 kts | 313° |
| 2026-04-20 04:54 | 38.64235 | -84.31744 | 10742 ft | 249 kts | 297° |
| 2026-04-20 04:54 | 38.64817 | -84.33823 | 10501 ft | 241 kts | 283° |
| 2026-04-20 04:54 | 38.64906 | -84.36039 | 10201 ft | 256 kts | 272° |
| 2026-04-20 04:54 | 38.64879 | -84.38365 | 9830 ft | 262 kts | 272° |
| 2026-04-20 04:55 | 38.64954 | -84.40592 | 9492 ft | 242 kts | 274° |
| 2026-04-20 04:55 | 38.65114 | -84.42702 | 9266 ft | 247 kts | 286° |
| 2026-04-20 04:55 | 38.65982 | -84.44620 | 9035 ft | 253 kts | 306° |
| 2026-04-20 04:55 | 38.67337 | -84.46146 | 8727 ft | 257 kts | 321° |
| 2026-04-20 04:56 | 38.68794 | -84.47439 | 8389 ft | 259 kts | 321° |
| 2026-04-20 04:56 | 38.70239 | -84.48824 | 8029 ft | 255 kts | 319° |
| 2026-04-20 04:56 | 38.71644 | -84.50192 | 7694 ft | 253 kts | 319° |
| 2026-04-20 04:56 | 38.73045 | -84.51537 | 7345 ft | 253 kts | 320° |
| 2026-04-20 04:57 | 38.74440 | -84.52866 | 7013 ft | 250 kts | 320° |
| 2026-04-20 04:57 | 38.75820 | -84.54197 | 6659 ft | 246 kts | 320° |
| 2026-04-20 04:57 | 38.77173 | -84.55503 | 6335 ft | 248 kts | 320° |
| 2026-04-20 04:57 | 38.78552 | -84.56823 | 5987 ft | 247 kts | 320° |
| 2026-04-20 04:58 | 38.79895 | -84.58104 | 5638 ft | 232 kts | 321° |
| 2026-04-20 04:58 | 38.81135 | -84.59293 | 5319 ft | 213 kts | 320° |
| 2026-04-20 04:58 | 38.82273 | -84.60408 | 5036 ft | 202 kts | 319° |
| 2026-04-20 04:58 | 38.83395 | -84.61471 | 4779 ft | 201 kts | 321° |
| 2026-04-20 04:59 | 38.84504 | -84.62535 | 4503 ft | 195 kts | 320° |
| 2026-04-20 04:59 | 38.85537 | -84.63535 | 4295 ft | 176 kts | 320° |
| 2026-04-20 04:59 | 38.86507 | -84.64420 | 3945 ft | 170 kts | 327° |
| 2026-04-20 04:59 | 38.87630 | -84.64691 | 3831 ft | 163 kts | 351° |
| 2026-04-20 05:00 | 38.88786 | -84.64726 | 3640 ft | 169 kts | 353° |
| 2026-04-20 05:00 | 38.89957 | -84.64739 | 3423 ft | 171 kts | 354° |
| 2026-04-20 05:00 | 38.91116 | -84.64724 | 3170 ft | 157 kts | 355° |
| 2026-04-20 05:00 | 38.92202 | -84.64723 | 2971 ft | 160 kts | 354° |
| 2026-04-20 05:01 | 38.93279 | -84.64717 | 2770 ft | 144 kts | 355° |
| 2026-04-20 05:01 | 38.94229 | -84.64709 | 2592 ft | 132 kts | 354° |
| 2026-04-20 05:01 | 38.95132 | -84.64717 | 2398 ft | 128 kts | 355° |
| 2026-04-20 05:01 | 38.95999 | -84.64712 | 2252 ft | 124 kts | 355° |
| 2026-04-20 05:02 | 38.96847 | -84.64708 | 2080 ft | 119 kts | 355° |
| 2026-04-20 05:02 | 38.97654 | -84.64702 | 1920 ft | 118 kts | 356° |
| 2026-04-20 05:02 | 38.98476 | -84.64694 | 1752 ft | 119 kts | 356° |
| 2026-04-20 05:02 | 38.99315 | -84.64697 | 1565 ft | 122 kts | 356° |
| 2026-04-20 05:03 | 39.00160 | -84.64684 | 1401 ft | 121 kts | 358° |
| 2026-04-20 05:03 | 39.00988 | -84.64694 | 1253 ft | 117 kts | 358° |
| 2026-04-20 05:03 | 39.01809 | -84.64692 | 1087 ft | 117 kts | 359° |
| 2026-04-20 05:03 | 39.02617 | -84.64684 | 930 ft | 115 kts | 360° |
| 2026-04-20 05:04 | 39.03383 | -84.64679 | 882 ft | 101 kts | 0° |
| 2026-04-20 05:04 | 39.03899 | -84.64676 | 878 ft | 38 kts | 0° |
| 2026-04-20 05:04 | 39.04141 | -84.64675 | 878 ft | 34 kts | 0° |
| 2026-04-20 05:04 | 39.04335 | -84.64687 | 879 ft | 18 kts | 353° |
| 2026-04-20 05:05 | 39.04444 | -84.64754 | 879 ft | 18 kts | 312° |
| 2026-04-20 05:05 | 39.04461 | -84.64911 | 876 ft | 18 kts | 269° |
| 2026-04-20 05:05 | 39.04460 | -84.65073 | 876 ft | 18 kts | 270° |
| 2026-04-20 05:05 | 39.04462 | -84.65228 | 876 ft | 17 kts | 270° |
| 2026-04-20 05:06 | 39.04461 | -84.65380 | 876 ft | 17 kts | 270° |
| 2026-04-20 05:06 | 39.04462 | -84.65526 | 876 ft | 14 kts | 270° |
| 2026-04-20 05:06 | 39.04432 | -84.65585 | 876 ft | 9 kts | 194° |
| 2026-04-20 05:06 | 39.04375 | -84.65592 | 875 ft | 7 kts | 186° |
| 2026-04-20 05:07 | 39.04346 | -84.65617 | 875 ft | 5 kts | 246° |
| 2026-04-20 05:07 | 39.04346 | -84.65635 | 875 ft | 2 kts | 270° |
| 2026-04-20 05:07 | 39.04346 | -84.65637 | 875 ft | 0 kts | 270° |